Time;durP1;ratioP1;P1;durP2;ratioP2;P2;SDS_P1;SDS_P2;PMS_P1;PMS_P2;Temp;Humidity;BMP_temperature;BMP_pressure;BME280_temperature;BME280_humidity;BME280_pressure;Samples;Min_cycle;Max_cycle;Signal;HPM_P1;HPM_P2
2023/04/16 18:42:16;;;;;;;12.32;2.17;;;;;;;;;;5207110;23;20466;-69
2023/04/16 18:45:23;;;;;;;12.45;1.67;;;;;;;;;;4923067;29;20052;-71
2023/04/16 18:48:23;;;;;;;13.05;2.45;;;;;;;;;;4924669;29;20376;-71
2023/04/16 18:50:49;;;;;;;15.18;2.25;;;;;;;;;;4924829;29;20058;-72
2023/04/16 18:53:55;;;;;;;12.65;2.08;;;;;;;;;;4928328;29;20055;-71
2023/04/16 18:57:35;;;;;;;17.33;2.35;;;;;;;;;;4925645;29;20504;-68
2023/04/16 19:01:16;;;;;;;12.88;2.60;;;;;;;;;;4924402;29;20040;-70
2023/04/16 19:04:56;;;;;;;11.00;2.00;;;;;;;;;;4928786;29;20487;-73
2023/04/16 19:08:36;;;;;;;12.40;2.00;;;;;;;;;;4924738;29;20051;-72
2023/04/16 19:12:18;;;;;;;12.57;2.28;;;;;;;;;;4932137;29;20407;-72
2023/04/16 19:15:58;;;;;;;11.85;2.42;;;;;;;;;;4924332;29;20051;-72
2023/04/16 19:18:25;;;;;;;11.82;2.38;;;;;;;;;;4919633;29;20047;-71
2023/04/16 19:21:31;;;;;;;16.35;2.28;;;;;;;;;;4927372;29;20113;-71
2023/04/16 19:25:11;;;;;;;12.20;2.20;;;;;;;;;;4930766;29;20571;-68
2023/04/16 19:28:51;;;;;;;11.23;2.22;;;;;;;;;;4931327;29;20051;-71
2023/04/16 19:32:32;;;;;;;9.32;2.97;;;;;;;;;;4928635;29;20056;-70
2023/04/16 19:36:12;;;;;;;12.38;2.42;;;;;;;;;;4933347;29;20071;-70
2023/04/16 19:39:53;;;;;;;13.77;2.83;;;;;;;;;;4924526;29;20391;-69
2023/04/16 19:43:34;;;;;;;16.10;2.78;;;;;;;;;;4933762;28;20090;-72
2023/04/16 19:47:13;;;;;;;15.75;2.55;;;;;;;;;;4932234;29;20096;-69
2023/04/16 19:50:53;;;;;;;21.27;3.33;;;;;;;;;;4934999;28;20138;-67
2023/04/16 19:54:36;;;;;;;15.30;2.95;;;;;;;;;;4932028;28;20052;-70
2023/04/16 19:58:14;;;;;;;15.18;3.40;;;;;;;;;;4932953;29;20166;-70
2023/04/16 20:01:54;;;;;;;15.80;3.33;;;;;;;;;;4932401;28;20118;-70
2023/04/16 20:05:35;;;;;;;14.07;3.00;;;;;;;;;;4927182;29;20073;-70
2023/04/16 20:09:18;;;;;;;12.43;2.45;;;;;;;;;;4926402;29;20047;-71
2023/04/16 20:12:56;;;;;;;11.32;2.33;;;;;;;;;;4929528;29;20071;-70
2023/04/16 20:16:38;;;;;;;9.18;2.38;;;;;;;;;;4930846;29;20602;-73
2023/04/16 20:20:16;;;;;;;16.30;3.13;;;;;;;;;;4928407;28;20407;-72
2023/04/16 20:24:00;;;;;;;12.02;2.53;;;;;;;;;;4933256;29;20055;-73
2023/04/16 20:27:40;;;;;;;15.73;5.20;;;;;;;;;;4923436;29;20079;-73
2023/04/16 20:31:20;;;;;;;19.35;3.20;;;;;;;;;;4928553;29;20051;-72
2023/04/16 20:33:55;;;;;;;13.15;2.70;;;;;;;;;;4928787;29;20494;-72
2023/04/16 20:36:21;;;;;;;17.42;2.90;;;;;;;;;;4930195;29;20051;-72
2023/04/16 20:38:52;;;;;;;11.23;3.05;;;;;;;;;;4929686;29;20055;-71
2023/04/16 20:41:20;;;;;;;14.48;3.28;;;;;;;;;;4933983;29;21205;-71
2023/04/16 20:43:48;;;;;;;16.52;2.88;;;;;;;;;;4940377;28;20078;-74
2023/04/16 20:46:15;;;;;;;14.10;2.75;;;;;;;;;;4933051;29;20159;-71
2023/04/16 20:48:43;;;;;;;10.10;2.58;;;;;;;;;;4931868;29;20055;-69
2023/04/16 20:51:09;;;;;;;16.10;2.53;;;;;;;;;;4921107;29;20048;-72
2023/04/16 20:53:37;;;;;;;14.57;2.47;;;;;;;;;;4929959;29;20056;-71
2023/04/16 20:56:03;;;;;;;12.20;2.10;;;;;;;;;;4929629;29;20503;-73
2023/04/16 20:58:30;;;;;;;15.43;2.33;;;;;;;;;;4927487;29;20056;-73
2023/04/16 21:00:56;;;;;;;10.60;2.38;;;;;;;;;;4927915;29;20059;-71
2023/04/16 21:03:23;;;;;;;18.58;2.80;;;;;;;;;;4925575;29;20309;-72
2023/04/16 21:05:53;;;;;;;8.65;2.10;;;;;;;;;;4930213;29;20450;-75
2023/04/16 21:08:21;;;;;;;11.20;2.70;;;;;;;;;;4930132;29;20059;-73
2023/04/16 21:10:48;;;;;;;13.45;2.83;;;;;;;;;;4927620;29;20055;-73
2023/04/16 21:13:21;;;;;;;11.75;2.85;;;;;;;;;;4925775;29;20058;-72
2023/04/16 21:15:47;;;;;;;9.77;2.97;;;;;;;;;;4922449;29;20048;-73
2023/04/16 21:18:56;;;;;;;12.15;2.70;;;;;;;;;;4926526;29;20063;-73
2023/04/16 21:22:38;;;;;;;13.20;2.53;;;;;;;;;;4931349;29;20040;-72
2023/04/16 21:26:19;;;;;;;15.32;2.67;;;;;;;;;;4915735;29;20044;-75
2023/04/16 21:29:59;;;;;;;10.88;2.72;;;;;;;;;;4922690;29;20355;-73
2023/04/16 21:33:40;;;;;;;11.88;2.85;;;;;;;;;;4925603;29;20051;-72
2023/04/16 21:37:20;;;;;;;10.65;2.10;;;;;;;;;;4918664;29;21399;-73
2023/04/16 21:41:02;;;;;;;8.90;2.40;;;;;;;;;;4915083;29;20520;-72
2023/04/16 21:44:43;;;;;;;9.48;2.55;;;;;;;;;;4919147;29;20492;-74
2023/04/16 21:48:23;;;;;;;13.50;2.28;;;;;;;;;;4927338;29;20102;-74
2023/04/16 21:52:13;;;;;;;11.93;2.13;;;;;;;;;;4930314;29;20139;-73
2023/04/16 21:55:48;;;;;;;11.40;2.67;;;;;;;;;;4919647;29;20478;-72
2023/04/16 21:58:49;;;;;;;9.63;2.28;;;;;;;;;;4916649;29;20046;-73
2023/04/16 22:01:55;;;;;;;10.80;2.58;;;;;;;;;;4924541;29;20071;-73
2023/04/16 22:04:59;;;;;;;8.32;2.45;;;;;;;;;;4927584;29;20580;-73
2023/04/16 22:07:27;;;;;;;13.27;2.53;;;;;;;;;;4931472;29;20047;-75
2023/04/16 22:09:54;;;;;;;7.18;2.70;;;;;;;;;;4930292;29;20519;-74
2023/04/16 22:13:02;;;;;;;8.65;2.40;;;;;;;;;;4926053;29;20634;-73
2023/04/16 22:15:35;;;;;;;10.50;2.35;;;;;;;;;;4931993;29;20040;-72
2023/04/16 22:18:01;;;;;;;10.02;2.58;;;;;;;;;;4930935;29;20048;-73
2023/04/16 22:20:29;;;;;;;12.15;2.63;;;;;;;;;;4925614;29;20520;-72
2023/04/16 22:23:35;;;;;;;13.30;3.17;;;;;;;;;;4925839;29;20040;-70
2023/04/16 22:27:16;;;;;;;11.05;2.40;;;;;;;;;;4915405;29;20063;-69
2023/04/16 22:30:56;;;;;;;6.50;2.22;;;;;;;;;;4917922;29;20058;-72
2023/04/16 22:34:36;;;;;;;8.13;2.53;;;;;;;;;;4919939;29;20052;-70
2023/04/16 22:38:18;;;;;;;9.20;2.63;;;;;;;;;;4916183;29;20052;-71
2023/04/16 22:41:58;;;;;;;13.48;2.60;;;;;;;;;;4918332;29;20056;-71
2023/04/16 22:45:39;;;;;;;11.32;2.60;;;;;;;;;;4919130;29;20051;-71
2023/04/16 22:49:19;;;;;;;9.57;2.30;;;;;;;;;;4920249;29;20060;-71
2023/04/16 22:52:20;;;;;;;6.00;2.05;;;;;;;;;;4917701;29;20039;-71
2023/04/16 22:55:26;;;;;;;10.10;2.08;;;;;;;;;;4920092;29;20087;-70
2023/04/16 22:59:06;;;;;;;6.22;1.70;;;;;;;;;;4920195;29;20044;-71
2023/04/16 23:02:47;;;;;;;6.28;1.75;;;;;;;;;;4917400;29;20748;-74
2023/04/16 23:06:27;;;;;;;9.07;1.90;;;;;;;;;;4920345;29;20048;-71
2023/04/16 23:10:08;;;;;;;5.28;1.70;;;;;;;;;;4918500;29;20055;-69
2023/04/16 23:13:48;;;;;;;4.65;1.85;;;;;;;;;;4922494;29;20043;-72
2023/04/16 23:17:29;;;;;;;4.95;1.52;;;;;;;;;;4918751;29;20094;-69
2023/04/16 23:21:09;;;;;;;5.03;1.67;;;;;;;;;;4917174;29;20040;-69
2023/04/16 23:24:10;;;;;;;5.30;1.55;;;;;;;;;;4915895;29;20856;-68
2023/04/16 23:26:36;;;;;;;5.05;1.65;;;;;;;;;;4932630;28;20130;-68
2023/04/16 23:29:02;;;;;;;3.85;1.67;;;;;;;;;;4920087;29;20052;-73
2023/04/16 23:32:09;;;;;;;9.52;1.85;;;;;;;;;;4919359;29;20047;-69
2023/04/16 23:35:49;;;;;;;8.55;1.90;;;;;;;;;;4919819;29;20106;-72
2023/04/16 23:38:49;;;;;;;4.97;1.70;;;;;;;;;;4915895;29;20744;-68
2023/04/16 23:41:56;;;;;;;10.32;1.80;;;;;;;;;;4916799;29;20775;-69
2023/04/16 23:45:36;;;;;;;6.20;1.77;;;;;;;;;;4918095;29;20123;-70
2023/04/16 23:48:37;;;;;;;8.35;1.83;;;;;;;;;;4916157;29;21993;-68
2023/04/16 23:51:31;;;;;;;4.95;1.35;;;;;;;;;;4920144;29;20055;-69
2023/04/16 23:54:37;;;;;;;6.13;1.70;;;;;;;;;;4916473;29;20056;-70
2023/04/16 23:58:17;;;;;;;3.97;1.30;;;;;;;;;;4913654;29;20043;-69
